createdAt,value
2022-12-08T00:01:34.765Z,12.50
2022-12-08T00:04:04.481Z,12.23
2022-12-08T00:06:57.114Z,13.40
2022-12-08T00:09:39.451Z,14.52
2022-12-08T00:12:09.752Z,12.52
2022-12-08T00:14:44.006Z,14.27
2022-12-08T00:17:15.198Z,15.07
2022-12-08T00:19:44.101Z,15.52
2022-12-08T00:22:12.908Z,14.32
2022-12-08T00:24:44.065Z,17.95
2022-12-08T00:27:15.682Z,19.48
2022-12-08T00:29:45.704Z,21.52
2022-12-08T00:32:13.238Z,24.23
2022-12-08T00:34:40.310Z,18.83
2022-12-08T00:37:07.465Z,26.60
2022-12-08T00:39:34.593Z,27.23
2022-12-08T00:42:13.938Z,25.67
2022-12-08T00:44:43.746Z,26.60
2022-12-08T00:47:12.182Z,28.73
2022-12-08T00:49:40.963Z,29.17
2022-12-08T00:52:08.504Z,30.85
2022-12-08T00:54:35.751Z,26.73
2022-12-08T00:57:06.385Z,30.15
2022-12-08T00:59:33.722Z,27.85
2022-12-08T01:02:00.765Z,29.30
2022-12-08T01:04:27.795Z,31.08
2022-12-08T01:06:54.972Z,28.60
2022-12-08T01:09:22.036Z,29.65
2022-12-08T01:11:50.426Z,31.63
2022-12-08T01:14:17.538Z,31.42
2022-12-08T01:16:44.664Z,31.92
2022-12-08T01:19:14.496Z,30.23
2022-12-08T01:21:43.850Z,33.00
2022-12-08T01:24:20.441Z,30.92
2022-12-08T01:26:49.857Z,30.63
2022-12-08T01:29:17.709Z,30.67
2022-12-08T01:31:45.068Z,28.40
2022-12-08T01:34:12.342Z,29.17
2022-12-08T01:36:39.501Z,29.10
2022-12-08T01:39:14.183Z,28.35
2022-12-08T01:41:43.811Z,27.30
2022-12-08T01:44:10.887Z,27.55
2022-12-08T01:46:44.585Z,29.40
2022-12-08T01:49:19.563Z,28.55
2022-12-08T01:51:55.168Z,29.10
2022-12-08T01:54:29.215Z,30.98
2022-12-08T01:57:09.041Z,28.50
2022-12-08T01:59:43.624Z,27.70
2022-12-08T02:02:12.516Z,28.45
2022-12-08T02:04:39.599Z,26.45
2022-12-08T02:07:10.007Z,27.77
2022-12-08T02:09:39.838Z,29.10
2022-12-08T02:12:07.943Z,27.23
2022-12-08T02:14:35.776Z,29.73
2022-12-08T02:17:34.773Z,28.85
2022-12-08T02:20:27.510Z,31.00
2022-12-08T02:23:23.942Z,27.42
2022-12-08T02:26:31.930Z,29.05
2022-12-08T02:29:31.167Z,26.20
2022-12-08T02:32:44.353Z,27.23
2022-12-08T02:35:30.963Z,27.80
2022-12-08T02:38:17.780Z,28.88
2022-12-08T02:41:18.338Z,29.27
2022-12-08T02:43:54.754Z,30.15
2022-12-08T02:46:31.080Z,26.50
2022-12-08T02:49:00.322Z,27.05
2022-12-08T02:51:27.383Z,23.33
2022-12-08T02:53:55.576Z,21.77
2022-12-08T02:56:53.186Z,25.00
2022-12-08T02:59:32.610Z,27.35
2022-12-08T03:02:24.520Z,25.20
2022-12-08T03:05:32.605Z,24.73
2022-12-08T03:08:25.735Z,21.35
2022-12-08T03:11:09.458Z,21.38
2022-12-08T03:13:51.441Z,25.25
2022-12-08T03:16:26.926Z,21.00
2022-12-08T03:19:09.561Z,25.15
2022-12-08T03:21:39.338Z,24.90
2022-12-08T03:24:09.617Z,22.80
2022-12-08T03:26:46.399Z,22.75
2022-12-08T03:29:14.621Z,24.00
2022-12-08T03:31:51.964Z,23.27
2022-12-08T03:34:21.283Z,23.23
2022-12-08T03:36:48.302Z,21.95
2022-12-08T03:39:15.403Z,21.88
2022-12-08T03:41:42.632Z,22.73
2022-12-08T03:44:09.681Z,23.02
2022-12-08T03:46:36.756Z,22.25
2022-12-08T03:49:03.907Z,20.70
2022-12-08T03:51:31.100Z,20.92
2022-12-08T03:53:58.110Z,16.67
2022-12-08T03:56:33.278Z,18.48
2022-12-08T03:59:01.177Z,16.05
2022-12-08T04:01:28.688Z,16.40
2022-12-08T04:03:56.109Z,14.63
2022-12-08T04:06:23.889Z,14.90
2022-12-08T04:08:52.486Z,16.50
2022-12-08T04:11:20.396Z,15.02
2022-12-08T04:13:47.887Z,14.63
2022-12-08T04:16:19.559Z,15.95
2022-12-08T04:18:46.794Z,11.18
2022-12-08T04:21:15.157Z,13.50
2022-12-08T04:23:43.350Z,9.50
2022-12-08T04:26:10.946Z,10.13
2022-12-08T04:28:38.192Z,10.25
2022-12-08T04:31:06.299Z,10.20
2022-12-08T04:33:35.256Z,8.70
2022-12-08T04:36:05.158Z,11.27
2022-12-08T04:38:34.070Z,9.32
2022-12-08T04:41:02.067Z,9.25
2022-12-08T04:43:29.436Z,8.30
2022-12-08T04:45:56.560Z,10.02
2022-12-08T04:48:24.003Z,8.90
2022-12-08T04:50:51.588Z,7.57
2022-12-08T04:53:20.042Z,9.20
2022-12-08T04:55:48.723Z,7.50
2022-12-08T04:58:19.129Z,7.95
2022-12-08T05:00:48.639Z,6.55
2022-12-08T05:03:16.962Z,9.93
2022-12-08T05:05:44.525Z,10.20
2022-12-08T05:08:11.908Z,10.30
2022-12-08T05:10:39.242Z,11.95
2022-12-08T05:13:06.610Z,16.88
2022-12-08T05:15:34.606Z,10.52
2022-12-08T05:18:07.698Z,11.57
2022-12-08T05:20:34.994Z,12.38
2022-12-08T05:23:02.052Z,9.93
2022-12-08T05:25:29.231Z,9.52
2022-12-08T05:28:17.529Z,9.13
2022-12-08T05:30:43.435Z,8.48
2022-12-08T05:33:10.473Z,6.40
2022-12-08T05:35:37.551Z,7.50
2022-12-08T05:38:06.157Z,6.47
2022-12-08T05:40:33.293Z,6.25
2022-12-08T05:43:00.401Z,7.63
2022-12-08T05:45:27.446Z,6.90
2022-12-08T05:47:54.447Z,8.27
2022-12-08T05:50:22.523Z,8.93
2022-12-08T05:52:49.511Z,8.13
2022-12-08T05:55:17.862Z,9.50
2022-12-08T05:57:44.930Z,10.60
2022-12-08T06:00:12.756Z,10.93
2022-12-08T06:02:39.881Z,10.48
2022-12-08T06:05:07.676Z,13.45
2022-12-08T06:07:34.813Z,12.65
2022-12-08T06:10:02.581Z,11.35
2022-12-08T06:12:31.076Z,13.38
2022-12-08T06:14:58.147Z,10.93
2022-12-08T06:17:25.211Z,11.70
2022-12-08T06:19:52.369Z,14.70
2022-12-08T06:22:19.725Z,13.70
2022-12-08T06:24:46.779Z,16.60
2022-12-08T06:27:13.880Z,20.48
2022-12-08T06:29:41.173Z,15.52
2022-12-08T06:32:08.292Z,13.98
2022-12-08T06:34:35.376Z,14.35
2022-12-08T06:37:02.490Z,12.65
2022-12-08T06:39:29.599Z,10.43
2022-12-08T06:42:17.200Z,10.50
2022-12-08T06:44:44.244Z,8.25
2022-12-08T06:47:11.382Z,8.13
2022-12-08T06:49:40.277Z,9.52
2022-12-08T06:52:07.298Z,9.40
2022-12-08T06:54:34.506Z,9.55
2022-12-08T06:57:01.531Z,10.68
2022-12-08T06:59:28.562Z,10.23
2022-12-08T07:01:55.718Z,10.02
2022-12-08T07:04:23.295Z,10.07
2022-12-08T07:06:50.535Z,8.68
2022-12-08T07:09:17.592Z,10.02
2022-12-08T07:11:44.569Z,9.63
2022-12-08T07:14:13.439Z,7.75
2022-12-08T07:16:40.546Z,7.43
2022-12-08T07:19:07.637Z,9.07
2022-12-08T07:21:34.627Z,7.20
2022-12-08T07:24:02.639Z,7.50
2022-12-08T07:26:29.626Z,7.15
2022-12-08T07:28:56.690Z,7.93
2022-12-08T07:31:26.185Z,7.57
2022-12-08T07:33:56.846Z,8.00
2022-12-08T07:36:25.049Z,9.63
2022-12-08T07:38:53.689Z,6.60
2022-12-08T07:41:24.400Z,8.55
2022-12-08T07:43:53.586Z,8.35
2022-12-08T07:46:23.685Z,7.35
2022-12-08T07:48:53.193Z,8.30
2022-12-08T07:51:20.363Z,8.80
2022-12-08T07:53:53.802Z,7.30
2022-12-08T07:56:22.772Z,7.90
2022-12-08T07:58:50.503Z,8.43
2022-12-08T08:01:30.154Z,7.80
2022-12-08T08:04:01.799Z,6.20
2022-12-08T08:06:29.011Z,8.32
2022-12-08T08:08:56.135Z,9.13
2022-12-08T08:11:23.623Z,5.90
2022-12-08T08:13:51.875Z,6.15
2022-12-08T08:16:21.210Z,8.82
2022-12-08T08:18:50.908Z,8.07
2022-12-08T08:21:44.307Z,9.95
2022-12-08T08:24:07.008Z,6.72
2022-12-08T08:26:34.221Z,7.82
2022-12-08T08:29:01.309Z,7.13
2022-12-08T08:31:28.516Z,7.65
2022-12-08T08:33:56.864Z,9.88
2022-12-08T08:36:23.942Z,7.13
2022-12-08T08:38:51.089Z,6.95
2022-12-08T08:41:18.101Z,8.55
2022-12-08T08:43:45.156Z,7.40
2022-12-08T08:46:12.323Z,9.07
2022-12-08T08:48:39.376Z,8.73
2022-12-08T08:51:14.026Z,7.50
2022-12-08T08:53:42.389Z,7.53
2022-12-08T08:56:18.415Z,8.68
2022-12-08T08:58:49.244Z,7.90
2022-12-08T09:01:21.254Z,9.65
2022-12-08T09:03:49.274Z,10.95
2022-12-08T09:06:17.719Z,8.45
2022-12-08T09:08:47.683Z,8.82
2022-12-08T09:11:15.627Z,11.55
2022-12-08T09:13:42.698Z,9.88
2022-12-08T09:16:11.662Z,9.45
2022-12-08T09:18:38.736Z,11.77
2022-12-08T09:21:09.322Z,7.68
2022-12-08T09:23:36.366Z,11.70
2022-12-08T09:26:05.194Z,7.55
2022-12-08T09:28:33.331Z,7.78
2022-12-08T09:31:01.390Z,6.88
2022-12-08T09:33:28.532Z,6.30
2022-12-08T09:35:55.754Z,5.32
2022-12-08T09:38:22.784Z,5.05
2022-12-08T09:40:53.187Z,3.85
2022-12-08T09:43:52.260Z,5.40
2022-12-08T09:46:20.815Z,4.50
2022-12-08T09:48:56.031Z,5.47
2022-12-08T09:51:25.873Z,4.70
2022-12-08T09:54:02.752Z,3.42
2022-12-08T09:56:36.938Z,5.03
2022-12-08T09:59:20.912Z,5.47
2022-12-08T10:01:48.167Z,4.80
2022-12-08T10:04:36.551Z,4.88
2022-12-08T10:07:16.901Z,3.63
2022-12-08T10:10:19.037Z,4.20
2022-12-08T10:13:00.246Z,5.13
2022-12-08T10:15:47.750Z,4.55
2022-12-08T10:18:28.956Z,3.92
2022-12-08T10:21:11.760Z,3.72
2022-12-08T10:23:44.409Z,3.50
2022-12-08T10:26:18.586Z,4.55
2022-12-08T10:28:45.977Z,5.53
2022-12-08T10:31:25.002Z,4.82
2022-12-08T10:34:10.551Z,5.53
2022-12-08T10:36:56.247Z,4.07
2022-12-08T10:39:32.314Z,5.30
2022-12-08T10:42:14.396Z,4.75
2022-12-08T10:44:58.170Z,5.30
2022-12-08T10:47:28.155Z,4.47
2022-12-08T10:50:27.666Z,7.85
2022-12-08T10:53:02.478Z,6.65
2022-12-08T10:55:47.663Z,9.57
2022-12-08T10:58:24.408Z,12.27
2022-12-08T11:00:57.418Z,12.43
2022-12-08T11:03:32.873Z,10.00
2022-12-08T11:06:10.973Z,3.17
2022-12-08T11:08:50.516Z,6.05
2022-12-08T11:11:24.361Z,3.28
2022-12-08T11:13:54.847Z,2.22
2022-12-08T11:16:23.591Z,3.00
2022-12-08T11:18:58.658Z,2.50
2022-12-08T11:21:36.978Z,5.43
2022-12-08T11:24:23.261Z,3.08
2022-12-08T11:27:05.392Z,4.38
2022-12-08T11:29:35.681Z,3.70
2022-12-08T11:32:12.654Z,4.15
2022-12-08T11:35:00.727Z,5.45
2022-12-08T11:37:43.282Z,4.30
2022-12-08T11:40:28.676Z,5.68
2022-12-08T11:43:50.669Z,4.82
2022-12-08T11:46:27.472Z,4.30
2022-12-08T11:49:06.792Z,5.30
2022-12-08T11:52:24.049Z,4.20
2022-12-08T11:55:21.228Z,5.50
2022-12-08T11:57:48.984Z,5.15
2022-12-08T12:00:17.934Z,5.50
2022-12-08T12:03:03.089Z,6.53
2022-12-08T12:06:09.221Z,6.30
2022-12-08T12:09:06.158Z,7.20
2022-12-08T12:12:08.181Z,6.40
2022-12-08T12:14:58.339Z,8.45
2022-12-08T12:17:53.122Z,5.22
2022-12-08T12:20:27.853Z,7.00
2022-12-08T12:23:42.887Z,6.47
2022-12-08T12:26:21.397Z,5.55
2022-12-08T12:29:15.190Z,5.10
2022-12-08T12:31:51.287Z,8.48
2022-12-08T12:34:29.056Z,5.00
2022-12-08T12:37:11.342Z,5.72
2022-12-08T12:39:53.473Z,4.20
2022-12-08T12:42:56.042Z,5.00
2022-12-08T12:45:33.136Z,6.22
2022-12-08T12:48:00.186Z,5.28
2022-12-08T12:50:33.620Z,5.60
2022-12-08T12:53:26.801Z,4.78
2022-12-08T12:56:00.745Z,5.60
2022-12-08T12:58:27.695Z,6.20
2022-12-08T13:01:57.102Z,4.20
2022-12-08T13:04:37.577Z,5.85
2022-12-08T13:07:05.377Z,4.80
2022-12-08T13:09:41.894Z,4.22
2022-12-08T13:12:24.309Z,6.22
2022-12-08T13:15:00.801Z,5.28
2022-12-08T13:17:31.707Z,5.15
2022-12-08T13:20:05.326Z,3.80
2022-12-08T13:22:54.396Z,4.70
2022-12-08T13:25:39.896Z,3.53
2022-12-08T13:28:15.914Z,4.03
2022-12-08T13:30:50.021Z,5.10
2022-12-08T13:33:29.147Z,4.00
2022-12-08T13:36:24.093Z,4.22
2022-12-08T13:38:57.818Z,3.53
2022-12-08T13:41:41.668Z,5.53
2022-12-08T13:47:33.984Z,7.25
2022-12-08T13:59:30.404Z,7.10
2022-12-08T14:02:13.174Z,9.10
2022-12-08T14:05:16.960Z,8.55
2022-12-08T14:07:34.975Z,7.07
2022-12-08T14:10:03.953Z,8.15
2022-12-08T14:12:31.810Z,7.50
2022-12-08T14:15:06.835Z,9.80
2022-12-08T14:17:34.576Z,9.38
2022-12-08T14:20:29.471Z,11.18
2022-12-08T14:22:59.378Z,11.93
2022-12-08T14:25:30.193Z,12.18
2022-12-08T14:28:04.271Z,11.68
2022-12-08T14:30:33.291Z,12.65
2022-12-08T14:33:04.507Z,12.90
2022-12-08T14:35:34.346Z,12.25
2022-12-08T14:38:24.421Z,12.02
2022-12-08T14:41:08.738Z,13.52
2022-12-08T14:43:37.143Z,13.65
2022-12-08T14:46:22.873Z,16.13
2022-12-08T14:48:50.245Z,13.88
2022-12-08T14:51:20.546Z,13.38
2022-12-08T14:54:06.486Z,15.38
2022-12-08T14:56:39.321Z,18.65
2022-12-08T14:59:20.023Z,17.92
2022-12-08T15:01:51.066Z,16.20
2022-12-08T15:04:24.598Z,14.05
2022-12-08T15:07:05.606Z,13.05
2022-12-08T15:09:38.409Z,13.93
2022-12-08T15:12:24.729Z,9.90
2022-12-08T15:15:17.638Z,9.60
2022-12-08T15:17:57.465Z,10.90
2022-12-08T15:20:44.316Z,7.78
2022-12-08T15:23:20.276Z,7.95
2022-12-08T15:25:48.591Z,7.63
2022-12-08T15:28:22.055Z,6.07
2022-12-08T15:30:52.362Z,5.60
2022-12-08T15:33:21.314Z,6.97
2022-12-08T15:35:50.531Z,6.97
2022-12-08T15:38:27.088Z,7.88
2022-12-08T15:40:58.760Z,6.43
2022-12-08T15:43:26.274Z,8.65
2022-12-08T15:45:59.536Z,7.57
2022-12-08T15:48:30.097Z,11.90
2022-12-08T15:50:58.322Z,9.82
2022-12-08T15:53:25.819Z,8.38
2022-12-08T15:58:58.129Z,8.68
2022-12-08T16:01:26.810Z,8.75
2022-12-08T16:09:44.007Z,7.95
2022-12-08T16:18:28.178Z,9.35
2022-12-08T16:23:44.603Z,7.97
2022-12-08T16:26:28.346Z,7.35
2022-12-08T16:29:04.744Z,8.55
2022-12-08T16:31:35.400Z,8.55
2022-12-08T16:34:02.578Z,10.25
2022-12-08T16:36:29.634Z,10.27
2022-12-08T16:38:58.672Z,8.68
2022-12-08T16:41:44.689Z,7.38
2022-12-08T16:44:12.744Z,6.57
2022-12-08T16:46:39.790Z,6.07
2022-12-08T16:49:09.618Z,6.82
2022-12-08T16:51:36.776Z,8.55
2022-12-08T16:54:03.931Z,6.35
2022-12-08T16:56:33.399Z,7.95
2022-12-08T16:59:02.310Z,7.55
2022-12-08T17:01:30.340Z,7.57
2022-12-08T17:06:44.639Z,8.00
2022-12-08T17:09:11.804Z,9.00
2022-12-08T17:11:42.949Z,10.07
2022-12-08T17:14:15.417Z,9.48
2022-12-08T17:16:43.741Z,8.98
2022-12-08T17:19:15.153Z,10.40
2022-12-08T17:21:44.538Z,9.07
2022-12-08T17:24:12.954Z,11.55
2022-12-08T17:26:43.064Z,10.82
2022-12-08T17:29:10.069Z,12.07
2022-12-08T17:31:37.184Z,11.70
2022-12-08T17:34:10.421Z,10.48
2022-12-08T17:36:38.077Z,13.43
2022-12-08T17:39:08.652Z,11.93
2022-12-08T17:41:38.335Z,11.88
2022-12-08T17:44:13.111Z,11.23
2022-12-08T17:46:43.444Z,12.10
2022-12-08T17:49:19.347Z,12.68
2022-12-08T17:51:49.589Z,22.27
2022-12-08T17:54:18.724Z,18.15
2022-12-08T17:56:47.833Z,15.20
2022-12-08T17:59:15.514Z,43.88
2022-12-08T18:01:43.079Z,9.18
2022-12-08T18:04:11.741Z,14.30
2022-12-08T18:06:40.596Z,14.30
2022-12-08T18:09:08.702Z,10.45
2022-12-08T18:11:36.622Z,9.93
2022-12-08T18:14:10.005Z,10.70
2022-12-08T18:16:41.933Z,11.93
2022-12-08T18:19:10.299Z,10.18
2022-12-08T18:21:38.147Z,13.40
2022-12-08T18:24:06.382Z,12.20
2022-12-08T18:26:33.810Z,12.05
2022-12-08T18:29:01.162Z,11.45
2022-12-08T18:31:28.367Z,11.60
2022-12-08T18:33:55.668Z,14.23
2022-12-08T18:36:26.056Z,12.93
2022-12-08T18:38:54.096Z,12.27
2022-12-08T18:41:25.710Z,11.65
2022-12-08T18:43:55.401Z,16.88
2022-12-08T18:46:24.565Z,14.38
2022-12-08T18:48:58.262Z,14.35
2022-12-08T18:51:25.423Z,16.20
2022-12-08T18:53:53.079Z,14.82
2022-12-08T18:56:28.698Z,16.90
2022-12-08T18:59:02.986Z,14.73
2022-12-08T19:01:35.766Z,15.13
2022-12-08T19:06:54.621Z,18.00
2022-12-08T19:09:22.764Z,19.38
2022-12-08T19:11:50.114Z,17.50
2022-12-08T19:14:20.088Z,18.90
2022-12-08T19:16:50.512Z,20.55
2022-12-08T19:19:17.962Z,28.50
2022-12-08T19:21:46.748Z,22.38
2022-12-08T19:24:14.055Z,21.27
2022-12-08T19:26:42.907Z,25.88
2022-12-08T19:29:11.248Z,28.13
2022-12-08T19:31:38.565Z,24.60
2022-12-08T19:34:06.406Z,26.67
2022-12-08T19:36:35.692Z,46.40
2022-12-08T19:39:23.863Z,33.30
2022-12-08T19:42:09.567Z,44.97
2022-12-08T19:44:55.105Z,36.50
2022-12-08T19:47:27.139Z,37.17
2022-12-08T19:50:15.808Z,28.95
2022-12-08T19:52:44.315Z,27.83
2022-12-08T19:55:13.212Z,31.00
2022-12-08T19:57:40.418Z,30.63
2022-12-08T20:00:11.276Z,41.42
2022-12-08T20:02:38.969Z,32.25
2022-12-08T20:05:07.548Z,36.20
2022-12-08T20:07:34.723Z,36.45
2022-12-08T20:10:08.035Z,38.63
2022-12-08T20:12:35.402Z,34.53
2022-12-08T20:15:02.436Z,32.53
2022-12-08T20:17:29.486Z,32.83
2022-12-08T20:19:56.527Z,32.17
2022-12-08T20:22:23.581Z,32.40
2022-12-08T20:24:57.372Z,33.53
2022-12-08T20:27:25.510Z,34.95
2022-12-08T20:29:52.597Z,33.08
2022-12-08T20:32:19.756Z,34.30
2022-12-08T20:34:46.838Z,36.38
2022-12-08T20:37:14.081Z,34.63
2022-12-08T20:39:41.116Z,34.90
2022-12-08T20:42:13.648Z,32.45
2022-12-08T20:44:50.754Z,31.45
2022-12-08T20:47:17.896Z,34.92
2022-12-08T20:49:46.912Z,31.42
2022-12-08T20:52:14.021Z,32.83
2022-12-08T20:54:41.386Z,32.17
2022-12-08T20:57:09.617Z,35.13
2022-12-08T20:59:36.939Z,30.02
2022-12-08T21:02:04.422Z,33.63
2022-12-08T21:04:31.674Z,30.27
2022-12-08T21:06:59.712Z,34.20
2022-12-08T21:09:27.027Z,34.75
2022-12-08T21:11:54.341Z,35.72
2022-12-08T21:14:21.671Z,38.95
2022-12-08T21:16:50.834Z,36.42
2022-12-08T21:19:19.798Z,34.60
2022-12-08T21:21:47.928Z,32.08
2022-12-08T21:24:15.776Z,33.22
2022-12-08T21:26:43.086Z,33.03
2022-12-08T21:29:12.384Z,32.38
2022-12-08T21:31:40.664Z,30.55
2022-12-08T21:34:08.036Z,37.47
2022-12-08T21:36:35.175Z,39.28
2022-12-08T21:39:02.815Z,35.70
2022-12-08T21:41:49.105Z,33.67
2022-12-08T21:44:20.149Z,33.13
2022-12-08T21:46:47.483Z,33.90
2022-12-08T21:49:15.477Z,34.90
2022-12-08T21:51:44.094Z,45.08
2022-12-08T21:54:18.288Z,36.88
2022-12-08T21:56:48.625Z,43.15
2022-12-08T21:59:17.720Z,34.90
2022-12-08T22:01:45.220Z,35.75
2022-12-08T22:04:18.263Z,44.63
2022-12-08T22:06:47.082Z,78.20
2022-12-08T22:09:15.280Z,58.50
2022-12-08T22:11:44.151Z,56.25
2022-12-08T22:14:14.963Z,40.75
2022-12-08T22:16:44.100Z,49.58
2022-12-08T22:19:12.207Z,48.53
2022-12-08T22:21:39.973Z,49.47
2022-12-08T22:24:07.863Z,42.60
2022-12-08T22:26:34.967Z,47.55
2022-12-08T22:29:02.180Z,47.58
2022-12-08T22:31:29.255Z,35.08
2022-12-08T22:33:59.581Z,43.03
2022-12-08T22:36:28.052Z,34.38
2022-12-08T22:38:55.829Z,37.17
2022-12-08T22:41:23.858Z,35.22
2022-12-08T22:43:51.324Z,38.53
2022-12-08T22:46:26.875Z,41.83
2022-12-08T22:48:55.232Z,39.63
2022-12-08T22:51:23.488Z,46.63
2022-12-08T22:53:50.839Z,40.03
2022-12-08T22:56:19.688Z,41.35
2022-12-08T22:58:48.374Z,31.75
2022-12-08T23:01:31.833Z,32.13
2022-12-08T23:04:00.508Z,36.92
2022-12-08T23:06:29.920Z,37.60
2022-12-08T23:08:57.446Z,33.70
2022-12-08T23:11:29.729Z,36.25
2022-12-08T23:14:02.604Z,38.05
2022-12-08T23:16:30.002Z,37.40
2022-12-08T23:18:58.845Z,35.10
2022-12-08T23:21:25.931Z,34.42
2022-12-08T23:23:53.017Z,33.92
2022-12-08T23:26:25.725Z,32.55
2022-12-08T23:28:53.726Z,34.00
2022-12-08T23:31:22.423Z,37.38
2022-12-08T23:33:51.886Z,33.28
2022-12-08T23:36:21.585Z,39.67
2022-12-08T23:38:49.651Z,38.80
2022-12-08T23:41:16.994Z,43.25
2022-12-08T23:43:48.406Z,37.40
2022-12-08T23:46:18.396Z,36.25
2022-12-08T23:48:45.979Z,36.67
2022-12-08T23:51:14.575Z,32.80
2022-12-08T23:53:42.116Z,35.17
2022-12-08T23:56:13.539Z,35.92
2022-12-08T23:58:42.715Z,36.25
